sensor_id;sensor_type;location;lat;lon;timestamp;temperature;humidity
16128;DHT22;8168;49.036;7.690;2024-02-23T00:00:11;8.00;99.90
16128;DHT22;8168;49.036;7.690;2024-02-23T00:02:42;8.00;99.90
16128;DHT22;8168;49.036;7.690;2024-02-23T00:05:13;8.00;99.90
16128;DHT22;8168;49.036;7.690;2024-02-23T00:07:44;8.00;99.90
16128;DHT22;8168;49.036;7.690;2024-02-23T00:10:14;8.00;99.90
16128;DHT22;8168;49.036;7.690;2024-02-23T00:12:45;8.00;99.90
16128;DHT22;8168;49.036;7.690;2024-02-23T00:15:18;7.90;99.90
16128;DHT22;8168;49.036;7.690;2024-02-23T00:17:48;7.90;99.90
16128;DHT22;8168;49.036;7.690;2024-02-23T00:20:19;9.60;99.90
16128;DHT22;8168;49.036;7.690;2024-02-23T00:22:49;7.90;99.90
16128;DHT22;8168;49.036;7.690;2024-02-23T00:25:20;7.90;99.90
16128;DHT22;8168;49.036;7.690;2024-02-23T00:27:51;7.90;99.90
16128;DHT22;8168;49.036;7.690;2024-02-23T00:30:21;7.90;99.90
16128;DHT22;8168;49.036;7.690;2024-02-23T00:32:52;7.80;99.90
16128;DHT22;8168;49.036;7.690;2024-02-23T00:35:22;7.80;99.90
16128;DHT22;8168;49.036;7.690;2024-02-23T00:37:53;7.80;99.90
16128;DHT22;8168;49.036;7.690;2024-02-23T00:40:24;7.80;99.90
16128;DHT22;8168;49.036;7.690;2024-02-23T00:42:55;7.80;99.90
16128;DHT22;8168;49.036;7.690;2024-02-23T00:45:26;7.80;99.90
16128;DHT22;8168;49.036;7.690;2024-02-23T00:47:57;7.80;99.90
16128;DHT22;8168;49.036;7.690;2024-02-23T00:50:27;7.80;99.90
16128;DHT22;8168;49.036;7.690;2024-02-23T00:52:58;7.80;99.90
16128;DHT22;8168;49.036;7.690;2024-02-23T00:55:28;7.80;99.90
16128;DHT22;8168;49.036;7.690;2024-02-23T00:57:59;7.80;99.90
16128;DHT22;8168;49.036;7.690;2024-02-23T01:00:30;7.80;99.90
16128;DHT22;8168;49.036;7.690;2024-02-23T01:03:00;7.80;99.90
16128;DHT22;8168;49.036;7.690;2024-02-23T01:05:31;7.80;99.90
16128;DHT22;8168;49.036;7.690;2024-02-23T01:08:02;7.80;99.90
16128;DHT22;8168;49.036;7.690;2024-02-23T01:10:32;7.70;99.90
16128;DHT22;8168;49.036;7.690;2024-02-23T01:13:03;9.00;99.90
16128;DHT22;8168;49.036;7.690;2024-02-23T01:15:35;7.70;99.90
16128;DHT22;8168;49.036;7.690;2024-02-23T01:18:06;7.70;99.90
16128;DHT22;8168;49.036;7.690;2024-02-23T01:20:38;7.60;99.90
16128;DHT22;8168;49.036;7.690;2024-02-23T01:23:08;7.60;99.90
16128;DHT22;8168;49.036;7.690;2024-02-23T01:25:39;7.60;99.90
16128;DHT22;8168;49.036;7.690;2024-02-23T01:28:09;7.60;99.90
16128;DHT22;8168;49.036;7.690;2024-02-23T01:30:40;7.60;99.90
16128;DHT22;8168;49.036;7.690;2024-02-23T01:33:11;7.50;99.90
16128;DHT22;8168;49.036;7.690;2024-02-23T01:35:42;7.60;99.90
16128;DHT22;8168;49.036;7.690;2024-02-23T01:38:12;7.50;99.90
16128;DHT22;8168;49.036;7.690;2024-02-23T01:40:49;7.50;99.90
16128;DHT22;8168;49.036;7.690;2024-02-23T01:43:19;7.50;99.90
16128;DHT22;8168;49.036;7.690;2024-02-23T01:45:51;7.50;99.90
16128;DHT22;8168;49.036;7.690;2024-02-23T01:48:22;7.50;99.90
16128;DHT22;8168;49.036;7.690;2024-02-23T01:50:54;7.40;99.90
16128;DHT22;8168;49.036;7.690;2024-02-23T01:53:25;7.50;99.90
16128;DHT22;8168;49.036;7.690;2024-02-23T01:55:57;7.40;99.90
16128;DHT22;8168;49.036;7.690;2024-02-23T01:58:30;7.40;99.90
16128;DHT22;8168;49.036;7.690;2024-02-23T02:01:01;7.30;99.90
16128;DHT22;8168;49.036;7.690;2024-02-23T02:03:33;7.40;99.90
16128;DHT22;8168;49.036;7.690;2024-02-23T02:06:07;7.30;99.90
16128;DHT22;8168;49.036;7.690;2024-02-23T02:08:38;7.30;99.90
16128;DHT22;8168;49.036;7.690;2024-02-23T02:11:09;7.30;99.90
16128;DHT22;8168;49.036;7.690;2024-02-23T02:13:40;7.30;99.90
16128;DHT22;8168;49.036;7.690;2024-02-23T02:16:11;7.30;99.90
16128;DHT22;8168;49.036;7.690;2024-02-23T02:18:41;7.30;99.90
16128;DHT22;8168;49.036;7.690;2024-02-23T02:21:12;7.20;99.90
16128;DHT22;8168;49.036;7.690;2024-02-23T02:23:43;7.30;99.90
16128;DHT22;8168;49.036;7.690;2024-02-23T02:26:13;7.20;99.90
16128;DHT22;8168;49.036;7.690;2024-02-23T02:28:44;7.10;99.90
16128;DHT22;8168;49.036;7.690;2024-02-23T02:31:15;7.10;99.90
16128;DHT22;8168;49.036;7.690;2024-02-23T02:33:45;7.10;99.90
16128;DHT22;8168;49.036;7.690;2024-02-23T02:36:16;7.10;99.90
16128;DHT22;8168;49.036;7.690;2024-02-23T02:38:47;7.00;99.90
16128;DHT22;8168;49.036;7.690;2024-02-23T02:41:18;7.00;99.90
16128;DHT22;8168;49.036;7.690;2024-02-23T02:43:49;7.00;99.90
16128;DHT22;8168;49.036;7.690;2024-02-23T02:46:20;7.00;99.90
16128;DHT22;8168;49.036;7.690;2024-02-23T02:48:50;7.00;99.90
16128;DHT22;8168;49.036;7.690;2024-02-23T02:51:21;6.90;99.90
16128;DHT22;8168;49.036;7.690;2024-02-23T02:53:52;6.90;99.90
16128;DHT22;8168;49.036;7.690;2024-02-23T02:56:22;6.90;99.90
16128;DHT22;8168;49.036;7.690;2024-02-23T02:58:53;6.80;99.90
16128;DHT22;8168;49.036;7.690;2024-02-23T03:01:24;6.90;99.90
16128;DHT22;8168;49.036;7.690;2024-02-23T03:03:55;6.80;99.90
16128;DHT22;8168;49.036;7.690;2024-02-23T03:06:25;6.80;99.90
16128;DHT22;8168;49.036;7.690;2024-02-23T03:08:56;6.80;99.90
16128;DHT22;8168;49.036;7.690;2024-02-23T03:11:26;6.80;99.90
16128;DHT22;8168;49.036;7.690;2024-02-23T03:13:57;6.80;99.90
16128;DHT22;8168;49.036;7.690;2024-02-23T03:16:27;6.80;99.90
16128;DHT22;8168;49.036;7.690;2024-02-23T03:19:00;6.80;99.90
16128;DHT22;8168;49.036;7.690;2024-02-23T03:21:31;6.80;99.90
16128;DHT22;8168;49.036;7.690;2024-02-23T03:24:02;6.80;99.90
16128;DHT22;8168;49.036;7.690;2024-02-23T03:26:33;6.70;99.90
16128;DHT22;8168;49.036;7.690;2024-02-23T03:29:04;6.70;99.90
16128;DHT22;8168;49.036;7.690;2024-02-23T03:31:34;6.60;99.90
16128;DHT22;8168;49.036;7.690;2024-02-23T03:34:05;6.70;99.90
16128;DHT22;8168;49.036;7.690;2024-02-23T03:36:36;6.60;99.90
16128;DHT22;8168;49.036;7.690;2024-02-23T03:39:07;6.60;99.90
16128;DHT22;8168;49.036;7.690;2024-02-23T03:41:38;6.60;99.90
16128;DHT22;8168;49.036;7.690;2024-02-23T03:44:08;6.50;99.90
16128;DHT22;8168;49.036;7.690;2024-02-23T03:46:39;6.50;99.90
16128;DHT22;8168;49.036;7.690;2024-02-23T03:49:09;6.50;99.90
16128;DHT22;8168;49.036;7.690;2024-02-23T03:51:40;6.50;99.90
16128;DHT22;8168;49.036;7.690;2024-02-23T03:54:11;6.50;99.90
16128;DHT22;8168;49.036;7.690;2024-02-23T03:56:42;6.40;99.90
16128;DHT22;8168;49.036;7.690;2024-02-23T03:59:12;6.40;99.90
16128;DHT22;8168;49.036;7.690;2024-02-23T04:01:43;6.40;99.90
16128;DHT22;8168;49.036;7.690;2024-02-23T04:04:14;6.40;99.90
16128;DHT22;8168;49.036;7.690;2024-02-23T04:06:45;6.30;99.90
16128;DHT22;8168;49.036;7.690;2024-02-23T04:09:15;6.40;99.90
16128;DHT22;8168;49.036;7.690;2024-02-23T04:11:49;6.40;99.90
16128;DHT22;8168;49.036;7.690;2024-02-23T04:14:20;6.40;99.90
16128;DHT22;8168;49.036;7.690;2024-02-23T04:16:50;6.40;99.90
16128;DHT22;8168;49.036;7.690;2024-02-23T04:19:21;6.40;99.90
16128;DHT22;8168;49.036;7.690;2024-02-23T04:21:51;6.30;99.90
16128;DHT22;8168;49.036;7.690;2024-02-23T04:24:22;6.30;99.90
16128;DHT22;8168;49.036;7.690;2024-02-23T04:26:53;6.30;99.90
16128;DHT22;8168;49.036;7.690;2024-02-23T04:29:23;6.30;99.90
16128;DHT22;8168;49.036;7.690;2024-02-23T04:31:54;6.30;99.90
16128;DHT22;8168;49.036;7.690;2024-02-23T04:34:24;6.30;99.90
16128;DHT22;8168;49.036;7.690;2024-02-23T04:36:55;6.30;99.90
16128;DHT22;8168;49.036;7.690;2024-02-23T04:39:26;6.30;99.90
16128;DHT22;8168;49.036;7.690;2024-02-23T04:41:56;6.30;99.90
16128;DHT22;8168;49.036;7.690;2024-02-23T04:44:27;6.30;99.90
16128;DHT22;8168;49.036;7.690;2024-02-23T04:46:57;6.30;99.90
16128;DHT22;8168;49.036;7.690;2024-02-23T04:49:28;8.10;99.90
16128;DHT22;8168;49.036;7.690;2024-02-23T04:51:59;6.30;99.90
16128;DHT22;8168;49.036;7.690;2024-02-23T04:54:29;6.30;99.90
16128;DHT22;8168;49.036;7.690;2024-02-23T04:57:00;6.20;99.90
16128;DHT22;8168;49.036;7.690;2024-02-23T04:59:30;6.20;99.90
16128;DHT22;8168;49.036;7.690;2024-02-23T05:02:02;6.20;99.90
16128;DHT22;8168;49.036;7.690;2024-02-23T05:04:33;6.20;99.90
16128;DHT22;8168;49.036;7.690;2024-02-23T05:07:04;6.10;99.90
16128;DHT22;8168;49.036;7.690;2024-02-23T05:09:34;6.10;99.90
16128;DHT22;8168;49.036;7.690;2024-02-23T05:12:06;6.10;99.90
16128;DHT22;8168;49.036;7.690;2024-02-23T05:14:36;6.10;99.90
16128;DHT22;8168;49.036;7.690;2024-02-23T05:17:07;6.00;99.90
16128;DHT22;8168;49.036;7.690;2024-02-23T05:19:38;6.00;99.90
16128;DHT22;8168;49.036;7.690;2024-02-23T05:22:08;5.90;99.90
16128;DHT22;8168;49.036;7.690;2024-02-23T05:24:39;5.90;99.90
16128;DHT22;8168;49.036;7.690;2024-02-23T05:27:10;5.90;99.90
16128;DHT22;8168;49.036;7.690;2024-02-23T05:29:40;5.90;99.90
16128;DHT22;8168;49.036;7.690;2024-02-23T05:32:11;5.90;99.90
16128;DHT22;8168;49.036;7.690;2024-02-23T05:34:41;5.80;99.90
16128;DHT22;8168;49.036;7.690;2024-02-23T05:37:12;5.80;99.90
16128;DHT22;8168;49.036;7.690;2024-02-23T05:39:43;5.80;99.90
16128;DHT22;8168;49.036;7.690;2024-02-23T05:42:14;5.80;99.90
16128;DHT22;8168;49.036;7.690;2024-02-23T05:44:46;5.80;99.90
16128;DHT22;8168;49.036;7.690;2024-02-23T05:47:19;5.80;99.90
16128;DHT22;8168;49.036;7.690;2024-02-23T05:49:51;5.70;99.90
16128;DHT22;8168;49.036;7.690;2024-02-23T05:52:22;5.70;99.90
16128;DHT22;8168;49.036;7.690;2024-02-23T05:54:52;5.70;99.90
16128;DHT22;8168;49.036;7.690;2024-02-23T05:57:27;5.70;99.90
16128;DHT22;8168;49.036;7.690;2024-02-23T05:59:57;5.60;99.90
16128;DHT22;8168;49.036;7.690;2024-02-23T06:02:28;5.60;99.90
16128;DHT22;8168;49.036;7.690;2024-02-23T06:04:59;5.60;99.90
16128;DHT22;8168;49.036;7.690;2024-02-23T06:07:29;5.60;99.90
16128;DHT22;8168;49.036;7.690;2024-02-23T06:10:00;5.60;99.90
16128;DHT22;8168;49.036;7.690;2024-02-23T06:12:31;5.60;99.90
16128;DHT22;8168;49.036;7.690;2024-02-23T06:15:02;5.60;99.90
16128;DHT22;8168;49.036;7.690;2024-02-23T06:17:32;5.60;99.90
16128;DHT22;8168;49.036;7.690;2024-02-23T06:20:03;5.60;99.90
16128;DHT22;8168;49.036;7.690;2024-02-23T06:22:34;5.60;99.90
16128;DHT22;8168;49.036;7.690;2024-02-23T06:25:05;5.60;99.90
16128;DHT22;8168;49.036;7.690;2024-02-23T06:27:36;5.60;99.90
16128;DHT22;8168;49.036;7.690;2024-02-23T06:30:07;5.60;99.90
16128;DHT22;8168;49.036;7.690;2024-02-23T06:32:38;5.50;99.90
16128;DHT22;8168;49.036;7.690;2024-02-23T06:35:09;5.50;99.90
16128;DHT22;8168;49.036;7.690;2024-02-23T06:37:42;5.50;99.90
16128;DHT22;8168;49.036;7.690;2024-02-23T06:40:12;5.50;99.90
16128;DHT22;8168;49.036;7.690;2024-02-23T06:42:43;5.50;99.90
16128;DHT22;8168;49.036;7.690;2024-02-23T06:45:14;5.50;99.90
16128;DHT22;8168;49.036;7.690;2024-02-23T06:47:44;5.50;99.90
16128;DHT22;8168;49.036;7.690;2024-02-23T06:50:15;5.50;99.90
16128;DHT22;8168;49.036;7.690;2024-02-23T06:52:46;5.50;99.90
16128;DHT22;8168;49.036;7.690;2024-02-23T06:55:18;5.50;99.90
16128;DHT22;8168;49.036;7.690;2024-02-23T07:08:06;5.60;99.90
16128;DHT22;8168;49.036;7.690;2024-02-23T07:10:36;5.60;99.90
16128;DHT22;8168;49.036;7.690;2024-02-23T07:13:07;5.60;99.90
16128;DHT22;8168;49.036;7.690;2024-02-23T07:15:38;5.70;99.90
16128;DHT22;8168;49.036;7.690;2024-02-23T07:18:08;5.70;99.90
16128;DHT22;8168;49.036;7.690;2024-02-23T07:20:39;5.70;99.90
16128;DHT22;8168;49.036;7.690;2024-02-23T07:23:10;5.80;99.90
16128;DHT22;8168;49.036;7.690;2024-02-23T07:25:40;5.80;99.90
16128;DHT22;8168;49.036;7.690;2024-02-23T07:28:11;5.90;99.90
16128;DHT22;8168;49.036;7.690;2024-02-23T07:30:42;5.90;99.90
16128;DHT22;8168;49.036;7.690;2024-02-23T07:33:12;5.90;99.90
16128;DHT22;8168;49.036;7.690;2024-02-23T07:35:43;5.90;99.90
16128;DHT22;8168;49.036;7.690;2024-02-23T07:38:14;5.90;99.90
16128;DHT22;8168;49.036;7.690;2024-02-23T07:40:45;5.90;99.90
16128;DHT22;8168;49.036;7.690;2024-02-23T07:43:15;5.90;99.90
16128;DHT22;8168;49.036;7.690;2024-02-23T07:45:46;5.90;99.90
16128;DHT22;8168;49.036;7.690;2024-02-23T07:48:17;6.00;99.90
16128;DHT22;8168;49.036;7.690;2024-02-23T07:50:47;6.00;99.90
16128;DHT22;8168;49.036;7.690;2024-02-23T07:53:18;6.10;99.90
16128;DHT22;8168;49.036;7.690;2024-02-23T07:55:48;6.10;99.90
16128;DHT22;8168;49.036;7.690;2024-02-23T07:58:19;6.10;99.90
16128;DHT22;8168;49.036;7.690;2024-02-23T08:00:50;6.10;99.90
16128;DHT22;8168;49.036;7.690;2024-02-23T08:03:20;6.10;99.90
16128;DHT22;8168;49.036;7.690;2024-02-23T08:05:51;6.10;99.90
16128;DHT22;8168;49.036;7.690;2024-02-23T08:08:21;6.20;99.90
16128;DHT22;8168;49.036;7.690;2024-02-23T08:10:54;6.20;99.90
16128;DHT22;8168;49.036;7.690;2024-02-23T08:13:24;6.30;99.90
16128;DHT22;8168;49.036;7.690;2024-02-23T08:15:55;6.30;99.90
16128;DHT22;8168;49.036;7.690;2024-02-23T08:18:26;6.40;99.90
16128;DHT22;8168;49.036;7.690;2024-02-23T08:20:57;6.40;99.90
16128;DHT22;8168;49.036;7.690;2024-02-23T08:23:29;6.40;99.90
16128;DHT22;8168;49.036;7.690;2024-02-23T08:26:00;6.40;99.90
16128;DHT22;8168;49.036;7.690;2024-02-23T08:28:31;6.50;99.90
16128;DHT22;8168;49.036;7.690;2024-02-23T08:31:01;6.50;99.90
16128;DHT22;8168;49.036;7.690;2024-02-23T08:33:32;6.50;99.90
16128;DHT22;8168;49.036;7.690;2024-02-23T08:36:03;6.50;99.90
16128;DHT22;8168;49.036;7.690;2024-02-23T08:38:35;6.50;99.90
16128;DHT22;8168;49.036;7.690;2024-02-23T08:41:06;6.50;99.90
16128;DHT22;8168;49.036;7.690;2024-02-23T08:43:37;6.50;99.90
16128;DHT22;8168;49.036;7.690;2024-02-23T08:46:07;6.50;99.90
16128;DHT22;8168;49.036;7.690;2024-02-23T08:48:38;6.50;99.90
16128;DHT22;8168;49.036;7.690;2024-02-23T08:51:08;6.50;99.90
16128;DHT22;8168;49.036;7.690;2024-02-23T08:53:39;6.50;99.90
16128;DHT22;8168;49.036;7.690;2024-02-23T08:56:11;6.60;99.90
16128;DHT22;8168;49.036;7.690;2024-02-23T08:58:42;6.70;99.90
16128;DHT22;8168;49.036;7.690;2024-02-23T09:01:13;6.60;99.90
16128;DHT22;8168;49.036;7.690;2024-02-23T09:03:43;6.60;99.90
16128;DHT22;8168;49.036;7.690;2024-02-23T09:06:14;6.50;99.90
16128;DHT22;8168;49.036;7.690;2024-02-23T09:08:45;6.50;99.90
16128;DHT22;8168;49.036;7.690;2024-02-23T09:11:15;6.60;99.90
16128;DHT22;8168;49.036;7.690;2024-02-23T09:13:46;6.70;99.90
16128;DHT22;8168;49.036;7.690;2024-02-23T09:16:17;6.70;99.90
16128;DHT22;8168;49.036;7.690;2024-02-23T09:18:49;6.80;99.90
16128;DHT22;8168;49.036;7.690;2024-02-23T09:21:19;6.80;99.90
16128;DHT22;8168;49.036;7.690;2024-02-23T09:23:50;6.90;99.90
16128;DHT22;8168;49.036;7.690;2024-02-23T09:26:21;6.90;99.90
16128;DHT22;8168;49.036;7.690;2024-02-23T09:28:51;7.00;99.90
16128;DHT22;8168;49.036;7.690;2024-02-23T09:31:22;7.00;99.90
16128;DHT22;8168;49.036;7.690;2024-02-23T09:33:52;7.00;99.90
16128;DHT22;8168;49.036;7.690;2024-02-23T09:36:23;7.00;99.90
16128;DHT22;8168;49.036;7.690;2024-02-23T09:38:54;7.10;99.90
16128;DHT22;8168;49.036;7.690;2024-02-23T09:41:24;7.10;99.90
16128;DHT22;8168;49.036;7.690;2024-02-23T09:43:58;7.10;99.90
16128;DHT22;8168;49.036;7.690;2024-02-23T09:46:29;7.10;99.90
16128;DHT22;8168;49.036;7.690;2024-02-23T09:49:01;7.10;99.90
16128;DHT22;8168;49.036;7.690;2024-02-23T09:51:34;7.20;99.90
16128;DHT22;8168;49.036;7.690;2024-02-23T09:54:06;7.20;99.90
16128;DHT22;8168;49.036;7.690;2024-02-23T09:56:38;7.20;99.90
16128;DHT22;8168;49.036;7.690;2024-02-23T09:59:09;7.30;99.90
16128;DHT22;8168;49.036;7.690;2024-02-23T10:01:40;7.30;99.90
16128;DHT22;8168;49.036;7.690;2024-02-23T10:04:11;7.40;99.90
16128;DHT22;8168;49.036;7.690;2024-02-23T10:06:41;7.70;99.90
16128;DHT22;8168;49.036;7.690;2024-02-23T10:09:12;7.40;99.90
16128;DHT22;8168;49.036;7.690;2024-02-23T10:11:43;7.50;99.90
16128;DHT22;8168;49.036;7.690;2024-02-23T10:14:13;7.60;99.90
16128;DHT22;8168;49.036;7.690;2024-02-23T10:16:44;7.60;99.90
16128;DHT22;8168;49.036;7.690;2024-02-23T10:19:15;7.60;99.90
16128;DHT22;8168;49.036;7.690;2024-02-23T10:21:46;7.70;99.90
16128;DHT22;8168;49.036;7.690;2024-02-23T10:24:17;7.80;99.90
16128;DHT22;8168;49.036;7.690;2024-02-23T10:26:48;8.00;99.90
16128;DHT22;8168;49.036;7.690;2024-02-23T10:29:18;8.10;99.90
16128;DHT22;8168;49.036;7.690;2024-02-23T10:31:51;8.00;99.90
16128;DHT22;8168;49.036;7.690;2024-02-23T10:34:24;8.00;99.90
16128;DHT22;8168;49.036;7.690;2024-02-23T10:36:55;7.90;99.90
16128;DHT22;8168;49.036;7.690;2024-02-23T10:39:28;7.90;99.90
16128;DHT22;8168;49.036;7.690;2024-02-23T10:42:03;7.80;99.90
16128;DHT22;8168;49.036;7.690;2024-02-23T10:44:34;7.80;99.90
16128;DHT22;8168;49.036;7.690;2024-02-23T10:47:07;7.80;99.90
16128;DHT22;8168;49.036;7.690;2024-02-23T10:49:37;7.70;99.90
16128;DHT22;8168;49.036;7.690;2024-02-23T10:52:09;7.70;99.90
16128;DHT22;8168;49.036;7.690;2024-02-23T10:54:45;7.70;99.90
16128;DHT22;8168;49.036;7.690;2024-02-23T10:57:17;7.80;99.90
16128;DHT22;8168;49.036;7.690;2024-02-23T10:59:48;7.80;99.90
16128;DHT22;8168;49.036;7.690;2024-02-23T11:02:20;7.90;99.90
16128;DHT22;8168;49.036;7.690;2024-02-23T11:04:54;7.90;99.90
16128;DHT22;8168;49.036;7.690;2024-02-23T11:07:26;8.10;99.90
16128;DHT22;8168;49.036;7.690;2024-02-23T11:09:58;8.20;99.90
16128;DHT22;8168;49.036;7.690;2024-02-23T11:12:29;8.30;99.90
16128;DHT22;8168;49.036;7.690;2024-02-23T11:15:01;8.30;99.90
16128;DHT22;8168;49.036;7.690;2024-02-23T11:17:33;8.40;99.90
16128;DHT22;8168;49.036;7.690;2024-02-23T11:20:05;8.50;99.90
16128;DHT22;8168;49.036;7.690;2024-02-23T11:22:37;8.50;99.90
16128;DHT22;8168;49.036;7.690;2024-02-23T11:25:09;8.70;99.90
16128;DHT22;8168;49.036;7.690;2024-02-23T11:27:40;8.80;99.90
16128;DHT22;8168;49.036;7.690;2024-02-23T11:30:17;8.90;99.90
16128;DHT22;8168;49.036;7.690;2024-02-23T11:32:49;8.90;99.90
16128;DHT22;8168;49.036;7.690;2024-02-23T11:35:25;9.00;99.90
16128;DHT22;8168;49.036;7.690;2024-02-23T11:37:57;8.90;99.90
16128;DHT22;8168;49.036;7.690;2024-02-23T11:40:32;8.90;99.90
16128;DHT22;8168;49.036;7.690;2024-02-23T11:43:03;8.90;99.90
16128;DHT22;8168;49.036;7.690;2024-02-23T11:45:34;8.90;99.90
16128;DHT22;8168;49.036;7.690;2024-02-23T11:48:05;8.90;99.90
16128;DHT22;8168;49.036;7.690;2024-02-23T11:50:36;8.90;99.90
16128;DHT22;8168;49.036;7.690;2024-02-23T11:53:07;8.80;99.90
16128;DHT22;8168;49.036;7.690;2024-02-23T11:55:38;8.80;99.90
16128;DHT22;8168;49.036;7.690;2024-02-23T11:58:09;8.80;99.90
16128;DHT22;8168;49.036;7.690;2024-02-23T12:00:39;8.80;99.90
16128;DHT22;8168;49.036;7.690;2024-02-23T12:03:10;8.80;99.90
16128;DHT22;8168;49.036;7.690;2024-02-23T12:05:41;8.80;99.90
16128;DHT22;8168;49.036;7.690;2024-02-23T12:08:12;8.80;99.90
16128;DHT22;8168;49.036;7.690;2024-02-23T12:10:43;8.80;99.90
16128;DHT22;8168;49.036;7.690;2024-02-23T12:13:14;8.80;99.90
16128;DHT22;8168;49.036;7.690;2024-02-23T12:15:44;8.70;99.90
16128;DHT22;8168;49.036;7.690;2024-02-23T12:18:15;8.70;99.90
16128;DHT22;8168;49.036;7.690;2024-02-23T12:20:47;8.70;99.90
16128;DHT22;8168;49.036;7.690;2024-02-23T12:23:18;8.70;99.90
16128;DHT22;8168;49.036;7.690;2024-02-23T12:25:56;8.60;99.90
16128;DHT22;8168;49.036;7.690;2024-02-23T12:28:27;8.40;99.90
16128;DHT22;8168;49.036;7.690;2024-02-23T12:31:05;10.20;99.90
16128;DHT22;8168;49.036;7.690;2024-02-23T12:33:37;8.30;99.90
16128;DHT22;8168;49.036;7.690;2024-02-23T12:36:08;8.30;99.90
16128;DHT22;8168;49.036;7.690;2024-02-23T12:38:40;8.20;99.90
16128;DHT22;8168;49.036;7.690;2024-02-23T12:41:11;8.20;99.90
16128;DHT22;8168;49.036;7.690;2024-02-23T12:43:41;8.30;99.90
16128;DHT22;8168;49.036;7.690;2024-02-23T12:46:12;8.30;99.90
16128;DHT22;8168;49.036;7.690;2024-02-23T12:48:44;8.30;99.90
16128;DHT22;8168;49.036;7.690;2024-02-23T12:51:15;8.30;99.90
16128;DHT22;8168;49.036;7.690;2024-02-23T12:53:46;8.20;99.90
16128;DHT22;8168;49.036;7.690;2024-02-23T12:56:17;8.20;99.90
16128;DHT22;8168;49.036;7.690;2024-02-23T12:58:48;8.30;99.90
16128;DHT22;8168;49.036;7.690;2024-02-23T13:01:19;8.50;99.90
16128;DHT22;8168;49.036;7.690;2024-02-23T13:03:49;8.70;99.90
16128;DHT22;8168;49.036;7.690;2024-02-23T13:06:20;8.90;99.90
16128;DHT22;8168;49.036;7.690;2024-02-23T13:08:51;8.90;99.90
16128;DHT22;8168;49.036;7.690;2024-02-23T13:11:21;9.00;99.90
16128;DHT22;8168;49.036;7.690;2024-02-23T13:13:52;9.10;99.90
16128;DHT22;8168;49.036;7.690;2024-02-23T13:16:23;9.20;99.90
16128;DHT22;8168;49.036;7.690;2024-02-23T13:18:53;9.20;99.90
16128;DHT22;8168;49.036;7.690;2024-02-23T13:21:24;9.30;99.90
16128;DHT22;8168;49.036;7.690;2024-02-23T13:23:54;11.80;99.90
16128;DHT22;8168;49.036;7.690;2024-02-23T13:26:25;9.40;99.90
16128;DHT22;8168;49.036;7.690;2024-02-23T13:28:56;9.50;99.90
16128;DHT22;8168;49.036;7.690;2024-02-23T13:31:27;9.50;99.90
16128;DHT22;8168;49.036;7.690;2024-02-23T13:33:57;9.40;99.90
16128;DHT22;8168;49.036;7.690;2024-02-23T13:36:28;9.30;99.90
16128;DHT22;8168;49.036;7.690;2024-02-23T13:38:59;9.30;99.90
16128;DHT22;8168;49.036;7.690;2024-02-23T13:41:29;9.20;99.90
16128;DHT22;8168;49.036;7.690;2024-02-23T13:44:00;9.20;99.90
16128;DHT22;8168;49.036;7.690;2024-02-23T13:46:30;9.20;99.90
16128;DHT22;8168;49.036;7.690;2024-02-23T13:49:03;9.10;99.90
16128;DHT22;8168;49.036;7.690;2024-02-23T13:51:35;9.10;99.90
16128;DHT22;8168;49.036;7.690;2024-02-23T13:54:05;9.10;99.90
16128;DHT22;8168;49.036;7.690;2024-02-23T13:56:36;9.10;99.90
16128;DHT22;8168;49.036;7.690;2024-02-23T13:59:07;9.10;99.90
16128;DHT22;8168;49.036;7.690;2024-02-23T14:01:37;9.10;99.90
16128;DHT22;8168;49.036;7.690;2024-02-23T14:04:08;9.10;99.90
16128;DHT22;8168;49.036;7.690;2024-02-23T14:06:38;9.10;99.90
16128;DHT22;8168;49.036;7.690;2024-02-23T14:09:09;9.20;99.90
16128;DHT22;8168;49.036;7.690;2024-02-23T14:11:41;9.30;99.90
16128;DHT22;8168;49.036;7.690;2024-02-23T14:14:11;9.40;99.90
16128;DHT22;8168;49.036;7.690;2024-02-23T14:16:42;9.50;99.90
16128;DHT22;8168;49.036;7.690;2024-02-23T14:19:13;9.60;99.90
16128;DHT22;8168;49.036;7.690;2024-02-23T14:21:43;9.60;99.90
16128;DHT22;8168;49.036;7.690;2024-02-23T14:24:14;9.50;99.90
16128;DHT22;8168;49.036;7.690;2024-02-23T14:26:45;9.50;99.90
16128;DHT22;8168;49.036;7.690;2024-02-23T14:29:15;9.50;99.90
16128;DHT22;8168;49.036;7.690;2024-02-23T14:31:48;9.50;99.90
16128;DHT22;8168;49.036;7.690;2024-02-23T14:34:19;9.60;99.90
16128;DHT22;8168;49.036;7.690;2024-02-23T14:36:51;9.70;99.90
16128;DHT22;8168;49.036;7.690;2024-02-23T14:39:22;9.80;99.90
16128;DHT22;8168;49.036;7.690;2024-02-23T14:41:53;10.00;99.90
16128;DHT22;8168;49.036;7.690;2024-02-23T14:44:24;10.20;99.90
16128;DHT22;8168;49.036;7.690;2024-02-23T14:46:54;10.20;99.90
16128;DHT22;8168;49.036;7.690;2024-02-23T14:49:25;10.20;99.90
16128;DHT22;8168;49.036;7.690;2024-02-23T14:51:55;10.30;99.90
16128;DHT22;8168;49.036;7.690;2024-02-23T14:54:26;10.30;99.90
16128;DHT22;8168;49.036;7.690;2024-02-23T14:56:56;10.30;99.90
16128;DHT22;8168;49.036;7.690;2024-02-23T14:59:27;10.20;99.90
16128;DHT22;8168;49.036;7.690;2024-02-23T15:01:58;10.00;99.90
16128;DHT22;8168;49.036;7.690;2024-02-23T15:04:28;9.90;99.90
16128;DHT22;8168;49.036;7.690;2024-02-23T15:06:59;9.90;99.90
16128;DHT22;8168;49.036;7.690;2024-02-23T15:09:30;9.80;99.90
16128;DHT22;8168;49.036;7.690;2024-02-23T15:12:00;9.70;99.90
16128;DHT22;8168;49.036;7.690;2024-02-23T15:14:31;9.60;99.90
16128;DHT22;8168;49.036;7.690;2024-02-23T15:17:01;9.60;99.90
16128;DHT22;8168;49.036;7.690;2024-02-23T15:19:32;9.70;99.90
16128;DHT22;8168;49.036;7.690;2024-02-23T15:22:03;9.60;99.90
16128;DHT22;8168;49.036;7.690;2024-02-23T15:24:36;9.50;99.90
16128;DHT22;8168;49.036;7.690;2024-02-23T15:27:06;9.50;99.90
16128;DHT22;8168;49.036;7.690;2024-02-23T15:29:37;9.50;99.90
16128;DHT22;8168;49.036;7.690;2024-02-23T15:32:07;9.50;99.90
16128;DHT22;8168;49.036;7.690;2024-02-23T15:34:38;9.50;99.90
16128;DHT22;8168;49.036;7.690;2024-02-23T15:37:09;9.50;99.90
16128;DHT22;8168;49.036;7.690;2024-02-23T15:39:40;9.40;99.90
16128;DHT22;8168;49.036;7.690;2024-02-23T15:42:11;9.50;99.90
16128;DHT22;8168;49.036;7.690;2024-02-23T15:44:43;9.50;99.90
16128;DHT22;8168;49.036;7.690;2024-02-23T15:47:15;9.50;99.90
16128;DHT22;8168;49.036;7.690;2024-02-23T15:49:46;9.50;99.90
16128;DHT22;8168;49.036;7.690;2024-02-23T15:52:16;9.60;99.90
16128;DHT22;8168;49.036;7.690;2024-02-23T15:54:47;9.60;99.90
16128;DHT22;8168;49.036;7.690;2024-02-23T15:57:18;9.60;99.90
16128;DHT22;8168;49.036;7.690;2024-02-23T15:59:50;9.60;99.90
16128;DHT22;8168;49.036;7.690;2024-02-23T16:02:22;9.60;99.90
16128;DHT22;8168;49.036;7.690;2024-02-23T16:04:53;9.60;99.90
16128;DHT22;8168;49.036;7.690;2024-02-23T16:07:23;9.60;99.90
16128;DHT22;8168;49.036;7.690;2024-02-23T16:09:55;9.50;99.90
16128;DHT22;8168;49.036;7.690;2024-02-23T16:12:25;9.50;99.90
16128;DHT22;8168;49.036;7.690;2024-02-23T16:14:56;9.50;99.90
16128;DHT22;8168;49.036;7.690;2024-02-23T16:17:27;9.50;99.90
16128;DHT22;8168;49.036;7.690;2024-02-23T16:19:57;9.50;99.90
16128;DHT22;8168;49.036;7.690;2024-02-23T16:22:28;9.50;99.90
16128;DHT22;8168;49.036;7.690;2024-02-23T16:24:58;9.40;99.90
16128;DHT22;8168;49.036;7.690;2024-02-23T16:27:29;9.40;99.90
16128;DHT22;8168;49.036;7.690;2024-02-23T16:30:00;9.40;99.90
16128;DHT22;8168;49.036;7.690;2024-02-23T16:32:31;9.30;99.90
16128;DHT22;8168;49.036;7.690;2024-02-23T16:35:01;9.30;99.90